createdAt,value
2023-05-24T00:00:55.822Z,9.54
2023-05-24T00:03:25.278Z,9.48
2023-05-24T00:05:53.494Z,9.49
2023-05-24T00:08:21.589Z,9.56
2023-05-24T00:10:49.561Z,9.43
2023-05-24T00:13:17.517Z,9.40
2023-05-24T00:15:45.477Z,9.71
2023-05-24T00:18:13.457Z,9.62
2023-05-24T00:20:42.965Z,9.71
2023-05-24T00:23:11.141Z,9.74
2023-05-24T00:25:39.086Z,9.75
2023-05-24T00:28:07.068Z,9.71
2023-05-24T00:30:35.024Z,9.69
2023-05-24T00:33:03.005Z,9.86
2023-05-24T00:35:30.997Z,9.67
2023-05-24T00:38:00.393Z,9.69
2023-05-24T00:40:28.452Z,9.74
2023-05-24T00:42:56.406Z,9.57
2023-05-24T00:45:24.331Z,9.60
2023-05-24T00:47:52.487Z,9.69
2023-05-24T00:50:20.752Z,9.68
2023-05-24T00:52:49.290Z,9.74
2023-05-24T00:55:18.751Z,9.52
2023-05-24T00:57:46.756Z,9.42
2023-05-24T01:00:15.868Z,9.61
2023-05-24T01:02:43.936Z,9.71
2023-05-24T01:05:13.754Z,9.61
2023-05-24T01:07:49.882Z,9.75
2023-05-24T01:10:27.102Z,9.79
2023-05-24T01:13:00.977Z,9.74
2023-05-24T01:15:35.206Z,9.86
2023-05-24T01:18:07.957Z,9.92
2023-05-24T01:20:38.615Z,9.75
2023-05-24T01:23:19.392Z,9.99
2023-05-24T01:25:54.260Z,9.81
2023-05-24T01:28:23.894Z,9.89
2023-05-24T01:30:52.225Z,10.03
2023-05-24T01:33:20.313Z,9.83
2023-05-24T01:35:48.236Z,9.97
2023-05-24T01:38:16.261Z,9.72
2023-05-24T01:40:45.066Z,9.76
2023-05-24T01:43:17.342Z,9.80
2023-05-24T01:46:02.296Z,9.69
2023-05-24T01:48:38.080Z,9.72
2023-05-24T01:51:08.379Z,9.73
2023-05-24T01:53:43.200Z,9.56
2023-05-24T01:56:12.257Z,9.64
2023-05-24T01:58:40.698Z,9.54
2023-05-24T02:01:10.462Z,9.71
2023-05-24T02:03:39.102Z,9.58
2023-05-24T02:06:08.309Z,9.60
2023-05-24T02:08:36.246Z,9.55
2023-05-24T02:11:04.239Z,9.59
2023-05-24T02:13:32.160Z,9.76
2023-05-24T02:16:00.192Z,9.68
2023-05-24T02:18:34.684Z,9.75
2023-05-24T02:21:03.277Z,9.69
2023-05-24T02:23:31.757Z,9.69
2023-05-24T02:25:59.680Z,9.74
2023-05-24T02:28:28.426Z,9.56
2023-05-24T02:30:56.388Z,9.66
2023-05-24T02:33:25.628Z,9.58
2023-05-24T02:35:55.017Z,9.51
2023-05-24T02:38:23.327Z,9.68
2023-05-24T02:40:51.255Z,9.61
2023-05-24T02:43:19.192Z,9.62
2023-05-24T02:45:47.275Z,9.76
2023-05-24T02:48:15.212Z,9.59
2023-05-24T02:50:43.426Z,9.63
2023-05-24T02:53:12.976Z,9.61
2023-05-24T02:55:44.036Z,9.54
2023-05-24T02:58:12.190Z,9.40
2023-05-24T03:00:40.322Z,9.58
2023-05-24T03:03:08.479Z,9.51
2023-05-24T03:05:36.535Z,9.35
2023-05-24T03:08:04.524Z,9.42
2023-05-24T03:10:33.896Z,9.29
2023-05-24T03:13:01.917Z,9.37
2023-05-24T03:15:29.844Z,9.53
2023-05-24T03:17:58.008Z,9.56
2023-05-24T03:20:26.030Z,9.68
2023-05-24T03:22:53.988Z,9.40
2023-05-24T03:25:22.072Z,9.33
2023-05-24T03:27:51.397Z,9.24
2023-05-24T03:30:19.353Z,9.36
2023-05-24T03:32:47.345Z,9.38
2023-05-24T03:35:15.305Z,9.33
2023-05-24T03:37:43.283Z,9.25
2023-05-24T03:40:11.652Z,9.29
2023-05-24T03:42:39.854Z,9.36
2023-05-24T03:45:10.644Z,9.40
2023-05-24T03:47:38.585Z,9.37
2023-05-24T03:50:07.409Z,9.27
2023-05-24T03:52:35.361Z,9.19
2023-05-24T03:55:03.297Z,9.33
2023-05-24T03:57:31.244Z,9.15
2023-05-24T04:00:00.372Z,9.16
2023-05-24T04:02:29.804Z,9.37
2023-05-24T04:04:57.867Z,9.29
2023-05-24T04:07:25.822Z,9.43
2023-05-24T04:09:53.736Z,9.42
2023-05-24T04:12:21.679Z,9.24
2023-05-24T04:14:49.601Z,9.20
2023-05-24T04:17:18.714Z,9.13
2023-05-24T04:19:48.125Z,9.13
2023-05-24T04:22:16.141Z,9.15
2023-05-24T04:24:44.083Z,9.35
2023-05-24T04:27:12.147Z,9.23
2023-05-24T04:29:41.233Z,9.40
2023-05-24T04:32:10.522Z,9.47
2023-05-24T04:34:42.743Z,9.42
2023-05-24T04:37:13.746Z,9.58
2023-05-24T04:39:41.924Z,9.54
2023-05-24T04:42:09.917Z,9.53
2023-05-24T04:44:37.902Z,9.51
2023-05-24T04:47:06.349Z,9.34
2023-05-24T04:49:34.308Z,9.44
2023-05-24T04:52:02.223Z,9.52
2023-05-24T04:54:31.608Z,9.58
2023-05-24T04:56:59.578Z,9.60
2023-05-24T04:59:27.520Z,9.73
2023-05-24T05:01:55.570Z,9.55
2023-05-24T05:04:23.522Z,9.43
2023-05-24T05:06:51.548Z,9.44
2023-05-24T05:09:19.803Z,9.47
2023-05-24T05:11:49.329Z,9.61
2023-05-24T05:14:17.566Z,9.42
2023-05-24T05:19:14.273Z,9.28
2023-05-24T05:21:42.190Z,9.41
2023-05-24T05:24:10.204Z,9.55
2023-05-24T05:26:38.196Z,9.76
2023-05-24T05:29:07.549Z,9.78
2023-05-24T05:31:36.142Z,9.74
2023-05-24T05:34:04.133Z,9.80
2023-05-24T05:36:32.373Z,9.92
2023-05-24T05:39:00.347Z,10.16
2023-05-24T05:41:28.344Z,10.24
2023-05-24T05:43:56.494Z,10.19
2023-05-24T05:46:25.900Z,10.28
2023-05-24T05:48:53.812Z,10.25
2023-05-24T05:51:21.759Z,10.26
2023-05-24T05:53:49.692Z,10.28
2023-05-24T05:56:17.755Z,10.26
2023-05-24T05:58:45.705Z,10.21
2023-05-24T06:01:13.728Z,10.10
2023-05-24T06:03:43.260Z,10.25
2023-05-24T06:06:11.319Z,10.22
2023-05-24T06:08:40.902Z,10.36
2023-05-24T06:11:08.861Z,10.49
2023-05-24T06:13:36.784Z,10.41
2023-05-24T06:16:04.818Z,10.52
2023-05-24T06:18:32.755Z,10.70
2023-05-24T06:21:02.055Z,10.85
2023-05-24T06:23:30.047Z,10.87
2023-05-24T06:25:58.012Z,10.92
2023-05-24T06:28:26.191Z,11.01
2023-05-24T06:30:54.381Z,10.93
2023-05-24T06:33:22.641Z,10.99
2023-05-24T06:35:50.727Z,10.76
2023-05-24T06:38:20.084Z,10.73
2023-05-24T06:40:48.013Z,10.85
2023-05-24T06:43:16.295Z,10.85
2023-05-24T06:45:44.467Z,10.70
2023-05-24T06:48:12.469Z,10.71
2023-05-24T06:50:42.563Z,10.91
2023-05-24T06:53:11.110Z,10.89
2023-05-24T06:55:40.437Z,10.97
2023-05-24T06:58:08.713Z,10.98
2023-05-24T07:00:36.648Z,11.19
2023-05-24T07:03:04.999Z,11.16
2023-05-24T07:05:33.018Z,11.15
2023-05-24T07:08:01.059Z,11.07
2023-05-24T07:10:28.992Z,11.08
2023-05-24T07:12:58.304Z,11.12
2023-05-24T07:15:26.317Z,11.19
2023-05-24T07:17:55.125Z,11.21
2023-05-24T07:20:23.097Z,11.36
2023-05-24T07:22:52.100Z,11.43
2023-05-24T07:25:20.036Z,11.32
2023-05-24T07:27:47.985Z,11.39
2023-05-24T07:30:31.034Z,11.34
2023-05-24T07:33:00.082Z,11.52
2023-05-24T07:35:28.692Z,11.41
2023-05-24T07:37:56.901Z,11.35
2023-05-24T07:40:24.939Z,11.50
2023-05-24T07:42:52.913Z,11.57
2023-05-24T07:45:22.285Z,11.55
2023-05-24T07:47:50.367Z,11.48
2023-05-24T07:50:19.118Z,11.66
2023-05-24T07:52:47.071Z,11.73
2023-05-24T07:55:15.027Z,11.83
2023-05-24T07:57:43.037Z,11.76
2023-05-24T08:00:14.850Z,11.69
2023-05-24T08:02:46.373Z,11.50
2023-05-24T08:05:15.080Z,11.51
2023-05-24T08:07:43.064Z,11.62
2023-05-24T08:10:12.748Z,11.48
2023-05-24T08:12:40.842Z,11.62
2023-05-24T08:15:09.674Z,11.69
2023-05-24T08:17:37.793Z,11.74
2023-05-24T08:20:09.831Z,11.90
2023-05-24T08:22:38.325Z,11.99
2023-05-24T08:25:07.326Z,11.86
2023-05-24T08:27:35.262Z,11.72
2023-05-24T08:30:04.446Z,11.80
2023-05-24T08:32:33.375Z,11.84
2023-05-24T08:35:18.652Z,11.79
2023-05-24T08:37:50.918Z,11.83
2023-05-24T08:40:19.100Z,11.94
2023-05-24T08:42:47.389Z,12.05
2023-05-24T08:45:16.488Z,12.26
2023-05-24T08:47:44.598Z,12.18
2023-05-24T08:50:12.850Z,12.03
2023-05-24T08:52:41.714Z,12.09
2023-05-24T08:55:12.506Z,12.18
2023-05-24T08:57:41.691Z,12.17
2023-05-24T09:00:11.932Z,12.36
2023-05-24T09:02:42.163Z,12.29
2023-05-24T09:05:12.018Z,12.11
2023-05-24T09:07:39.998Z,12.22
2023-05-24T09:10:10.979Z,12.28
2023-05-24T09:12:40.322Z,12.26
2023-05-24T09:15:09.961Z,12.27
2023-05-24T09:17:39.150Z,12.29
2023-05-24T09:20:09.059Z,12.46
2023-05-24T09:22:41.076Z,12.64
2023-05-24T09:25:14.293Z,12.57
2023-05-24T09:27:42.471Z,12.65
2023-05-24T09:30:12.788Z,12.99
2023-05-24T09:32:41.364Z,13.25
2023-05-24T09:35:10.713Z,13.39
2023-05-24T09:37:40.505Z,13.60
2023-05-24T09:40:14.843Z,13.84
2023-05-24T09:42:42.961Z,13.83
2023-05-24T09:45:12.241Z,13.78
2023-05-24T09:47:43.336Z,13.87
2023-05-24T09:50:14.698Z,13.72
2023-05-24T09:52:43.197Z,13.42
2023-05-24T09:55:15.918Z,13.50
2023-05-24T09:57:45.087Z,13.70
2023-05-24T10:00:20.402Z,13.59
2023-05-24T10:05:19.469Z,13.57
2023-05-24T10:07:48.000Z,13.76
2023-05-24T10:10:17.334Z,13.74
2023-05-24T10:12:47.053Z,13.84
2023-05-24T10:15:15.295Z,13.98
2023-05-24T10:17:43.249Z,13.96
2023-05-24T10:20:13.119Z,14.17
2023-05-24T10:22:44.088Z,14.37
2023-05-24T10:25:14.740Z,13.95
2023-05-24T10:27:45.928Z,14.23
2023-05-24T10:30:18.980Z,14.26
2023-05-24T10:32:47.427Z,14.02
2023-05-24T10:35:16.217Z,14.24
2023-05-24T10:37:44.154Z,14.02
2023-05-24T10:40:18.236Z,14.14
2023-05-24T10:42:49.995Z,14.19
2023-05-24T10:45:32.961Z,14.18
2023-05-24T10:48:03.606Z,14.18
2023-05-24T10:50:31.617Z,14.25
2023-05-24T10:53:12.632Z,14.45
2023-05-24T10:55:56.164Z,14.48
2023-05-24T10:58:30.775Z,14.89
2023-05-24T11:00:58.724Z,15.16
2023-05-24T11:03:26.681Z,15.42
2023-05-24T11:05:55.617Z,14.79
2023-05-24T11:08:27.561Z,15.25
2023-05-24T11:11:24.470Z,15.20
2023-05-24T11:13:58.771Z,15.32
2023-05-24T11:16:38.530Z,15.18
2023-05-24T11:19:14.257Z,15.18
2023-05-24T11:21:42.438Z,14.99
2023-05-24T11:24:11.169Z,14.82
2023-05-24T11:26:39.163Z,14.98
2023-05-24T11:29:09.226Z,15.21
2023-05-24T11:31:43.178Z,14.88
2023-05-24T11:34:12.164Z,14.82
2023-05-24T11:36:41.189Z,14.64
2023-05-24T11:39:09.974Z,14.55
2023-05-24T11:41:39.130Z,14.80
2023-05-24T11:44:10.148Z,14.99
2023-05-24T11:46:39.607Z,15.06
2023-05-24T11:49:08.186Z,15.26
2023-05-24T11:51:37.678Z,15.24
2023-05-24T11:54:06.218Z,15.55
2023-05-24T11:56:34.509Z,15.67
2023-05-24T11:59:13.082Z,15.97
2023-05-24T12:01:41.673Z,15.71
2023-05-24T12:04:10.632Z,15.51
2023-05-24T12:06:40.227Z,15.86
2023-05-24T12:09:13.332Z,15.75
2023-05-24T12:11:42.548Z,15.68
2023-05-24T12:14:15.160Z,15.99
2023-05-24T12:16:43.747Z,16.04
2023-05-24T12:19:31.800Z,16.11
2023-05-24T12:22:02.149Z,16.24
2023-05-24T12:24:30.820Z,15.69
2023-05-24T12:27:03.492Z,15.67
2023-05-24T12:29:36.597Z,15.25
2023-05-24T12:32:05.888Z,14.85
2023-05-24T12:34:34.029Z,14.88
2023-05-24T12:37:01.967Z,14.44
2023-05-24T12:39:31.941Z,14.44
2023-05-24T12:42:01.776Z,14.34
2023-05-24T12:44:30.847Z,14.47
2023-05-24T12:47:00.651Z,14.77
2023-05-24T12:49:28.725Z,14.61
2023-05-24T12:51:57.645Z,14.63
2023-05-24T12:54:26.759Z,14.34
2023-05-24T12:56:57.002Z,13.94
2023-05-24T12:59:25.678Z,14.33
2023-05-24T13:01:53.987Z,14.41
2023-05-24T13:04:26.159Z,14.25
2023-05-24T13:06:54.379Z,14.85
2023-05-24T13:09:23.719Z,15.07
2023-05-24T13:11:52.302Z,15.11
2023-05-24T13:14:20.912Z,14.95
2023-05-24T13:16:49.156Z,14.77
2023-05-24T13:19:17.776Z,15.00
2023-05-24T13:21:47.185Z,15.26
2023-05-24T13:24:16.707Z,15.24
2023-05-24T13:26:44.853Z,15.18
2023-05-24T13:31:44.969Z,14.97
2023-05-24T13:34:13.604Z,15.45
2023-05-24T13:36:42.062Z,15.70
2023-05-24T13:41:43.073Z,14.89
2023-05-24T13:44:11.434Z,14.91
2023-05-24T13:46:40.258Z,14.76
2023-05-24T13:49:09.431Z,14.79
2023-05-24T13:51:37.861Z,14.92
2023-05-24T13:54:07.398Z,15.28
2023-05-24T13:56:37.266Z,15.32
2023-05-24T13:59:05.739Z,15.73
2023-05-24T14:01:34.209Z,15.93
2023-05-24T14:04:03.055Z,15.77
2023-05-24T14:06:31.360Z,15.89
2023-05-24T14:08:59.862Z,15.61
2023-05-24T14:11:31.491Z,16.10
2023-05-24T14:16:31.833Z,15.93
2023-05-24T14:18:59.859Z,16.13
2023-05-24T14:21:28.053Z,15.65
2023-05-24T14:23:55.977Z,16.09
2023-05-24T14:26:24.449Z,16.03
2023-05-24T14:28:56.042Z,15.92
2023-05-24T14:31:26.265Z,16.20
2023-05-24T14:33:54.306Z,15.62
2023-05-24T14:36:22.226Z,15.61
2023-05-24T14:38:50.214Z,15.17
2023-05-24T14:41:18.259Z,14.82
2023-05-24T14:43:46.184Z,15.36
2023-05-24T14:46:14.199Z,15.46
2023-05-24T14:48:43.596Z,15.78
2023-05-24T14:51:11.542Z,16.02
2023-05-24T14:53:39.499Z,15.85
2023-05-24T14:56:09.007Z,15.94
2023-05-24T14:58:37.227Z,16.00
2023-05-24T15:01:05.349Z,15.62
2023-05-24T15:03:33.502Z,15.64
2023-05-24T15:06:02.979Z,15.78
2023-05-24T15:08:30.926Z,15.37
2023-05-24T15:10:59.340Z,15.80
2023-05-24T15:13:27.342Z,15.97
2023-05-24T15:15:56.746Z,16.16
2023-05-24T15:18:27.992Z,16.29
2023-05-24T15:20:56.387Z,16.47
2023-05-24T15:23:26.256Z,16.05
2023-05-24T15:25:54.431Z,16.44
2023-05-24T15:28:24.640Z,16.47
2023-05-24T15:30:54.429Z,16.29
2023-05-24T15:33:22.548Z,16.14
2023-05-24T15:35:50.584Z,16.01
2023-05-24T15:38:18.771Z,16.01
2023-05-24T15:40:48.729Z,16.02
2023-05-24T15:43:18.885Z,16.44
2023-05-24T15:45:47.402Z,16.77
2023-05-24T15:48:15.619Z,16.24
2023-05-24T15:51:06.524Z,16.52
2023-05-24T15:53:32.558Z,17.26
2023-05-24T15:56:01.864Z,17.42
2023-05-24T15:58:29.854Z,17.15
2023-05-24T16:00:57.919Z,17.01
2023-05-24T16:03:26.026Z,16.81
2023-05-24T16:05:54.191Z,16.39
2023-05-24T16:08:27.545Z,16.66
2023-05-24T16:10:55.688Z,16.40
2023-05-24T16:13:25.061Z,17.04
2023-05-24T16:15:53.216Z,17.34
2023-05-24T16:18:22.829Z,16.94
2023-05-24T16:20:51.901Z,16.64
2023-05-24T16:23:22.994Z,16.73
2023-05-24T16:25:51.426Z,15.93
2023-05-24T16:28:23.928Z,16.04
2023-05-24T16:30:56.373Z,16.19
2023-05-24T16:33:24.914Z,16.11
2023-05-24T16:35:56.333Z,16.14
2023-05-24T16:38:24.678Z,15.74
2023-05-24T16:40:53.383Z,15.94
2023-05-24T16:43:21.610Z,15.79
2023-05-24T16:45:49.929Z,15.87
2023-05-24T16:48:21.642Z,15.65
2023-05-24T16:50:50.461Z,15.99
2023-05-24T16:53:20.363Z,16.11
2023-05-24T16:55:53.580Z,15.81
2023-05-24T16:58:21.642Z,16.34
2023-05-24T17:00:49.731Z,15.92
2023-05-24T17:03:22.110Z,15.67
2023-05-24T17:05:50.398Z,15.31
2023-05-24T17:08:18.947Z,15.21
2023-05-24T17:10:46.891Z,15.69
2023-05-24T17:13:14.897Z,15.96
2023-05-24T17:15:42.893Z,15.91
2023-05-24T17:18:11.509Z,15.96
2023-05-24T17:20:41.196Z,15.69
2023-05-24T17:23:09.470Z,15.30
2023-05-24T17:25:37.403Z,15.65
2023-05-24T17:28:05.325Z,15.71
2023-05-24T17:30:33.364Z,15.67
2023-05-24T17:33:01.365Z,15.43
2023-05-24T17:35:29.348Z,15.97
2023-05-24T17:37:58.684Z,16.45
2023-05-24T17:40:26.735Z,16.45
2023-05-24T17:42:54.658Z,16.54
2023-05-24T17:45:22.754Z,16.15
2023-05-24T17:47:50.778Z,16.00
2023-05-24T17:50:18.807Z,15.99
2023-05-24T17:52:46.751Z,16.15
2023-05-24T17:55:16.142Z,15.85
2023-05-24T17:57:44.685Z,15.82
2023-05-24T18:00:13.989Z,15.18
2023-05-24T18:02:42.450Z,15.25
2023-05-24T18:05:10.838Z,15.23
2023-05-24T18:07:38.781Z,15.46
2023-05-24T18:10:08.008Z,15.63
2023-05-24T18:12:37.668Z,15.50
2023-05-24T18:15:06.837Z,15.42
2023-05-24T18:17:35.002Z,14.97
2023-05-24T18:20:03.322Z,15.01
2023-05-24T18:22:31.742Z,15.10
2023-05-24T18:24:59.703Z,14.76
2023-05-24T18:27:27.693Z,14.53
2023-05-24T18:29:57.014Z,14.87
2023-05-24T18:32:25.072Z,14.27
2023-05-24T18:34:53.169Z,14.51
2023-05-24T18:37:23.080Z,14.70
2023-05-24T18:39:51.178Z,14.76
2023-05-24T18:42:19.105Z,14.47
2023-05-24T18:44:47.071Z,14.17
2023-05-24T18:47:16.530Z,14.14
2023-05-24T18:49:44.473Z,13.51
2023-05-24T18:52:12.385Z,13.63
2023-05-24T18:54:40.347Z,13.38
2023-05-24T18:57:08.482Z,13.61
2023-05-24T18:59:37.733Z,13.31
2023-05-24T19:02:07.491Z,13.02
2023-05-24T19:04:37.003Z,13.17
2023-05-24T19:07:05.095Z,13.01
2023-05-24T19:09:33.909Z,13.44
2023-05-24T19:12:04.523Z,13.21
2023-05-24T19:14:32.549Z,13.41
2023-05-24T19:17:00.684Z,13.01
2023-05-24T19:19:28.640Z,12.90
2023-05-24T19:21:58.007Z,12.90
2023-05-24T19:24:26.179Z,12.89
2023-05-24T19:26:54.264Z,12.93
2023-05-24T19:29:22.183Z,12.83
2023-05-24T19:31:50.992Z,12.47
2023-05-24T19:34:19.941Z,12.58
2023-05-24T19:36:47.911Z,12.65
2023-05-24T19:39:17.225Z,12.27
2023-05-24T19:41:45.180Z,12.51
2023-05-24T19:44:13.191Z,12.56
2023-05-24T19:46:41.244Z,12.37
2023-05-24T19:49:09.286Z,12.40
2023-05-24T19:51:37.553Z,12.61
2023-05-24T19:54:06.108Z,12.54
2023-05-24T19:56:35.428Z,12.56
2023-05-24T19:59:03.404Z,12.68
2023-05-24T20:01:31.487Z,12.76
2023-05-24T20:03:59.595Z,12.60
2023-05-24T20:06:27.666Z,12.59
2023-05-24T20:08:57.802Z,12.45
2023-05-24T20:11:25.891Z,12.23
2023-05-24T20:13:56.214Z,11.86
2023-05-24T20:16:24.511Z,11.77
2023-05-24T20:18:52.460Z,11.88
2023-05-24T20:21:20.694Z,11.72
2023-05-24T20:23:50.607Z,11.48
2023-05-24T20:26:18.578Z,11.59
2023-05-24T20:28:47.065Z,11.59
2023-05-24T20:31:16.662Z,11.12
2023-05-24T20:33:44.733Z,11.23
2023-05-24T20:36:14.904Z,11.40
2023-05-24T20:38:42.898Z,11.61
2023-05-24T20:41:10.860Z,11.56
2023-05-24T20:43:39.080Z,11.30
2023-05-24T20:46:07.169Z,11.48
2023-05-24T20:48:36.546Z,11.25
2023-05-24T20:51:04.538Z,11.51
2023-05-24T20:53:32.475Z,11.47
2023-05-24T20:56:01.953Z,11.61
2023-05-24T20:58:31.110Z,11.35
2023-05-24T21:00:59.253Z,11.35
2023-05-24T21:03:27.355Z,11.14
2023-05-24T21:05:56.722Z,11.10
2023-05-24T21:08:24.800Z,11.11
2023-05-24T21:10:55.559Z,11.19
2023-05-24T21:13:25.539Z,11.28
2023-05-24T21:15:53.555Z,11.31
2023-05-24T21:18:21.476Z,11.52
2023-05-24T21:20:49.675Z,11.51
2023-05-24T21:23:18.999Z,11.73
2023-05-24T21:25:46.918Z,11.57
2023-05-24T21:28:15.145Z,11.47
2023-05-24T21:30:43.153Z,11.64
2023-05-24T21:33:11.354Z,11.53
2023-05-24T21:35:39.414Z,11.29
2023-05-24T21:38:07.327Z,11.45
2023-05-24T21:40:36.650Z,11.49
2023-05-24T21:43:05.236Z,11.48
2023-05-24T21:45:33.354Z,11.69
2023-05-24T21:48:01.451Z,11.51
2023-05-24T21:50:29.431Z,11.48
2023-05-24T21:52:57.416Z,11.66
2023-05-24T21:55:25.530Z,11.65
2023-05-24T21:57:54.870Z,11.51
2023-05-24T22:00:23.616Z,11.33
2023-05-24T22:02:51.675Z,11.15
2023-05-24T22:05:19.842Z,11.12
2023-05-24T22:07:47.776Z,11.39
2023-05-24T22:10:15.783Z,11.17
2023-05-24T22:12:43.739Z,11.45
2023-05-24T22:15:13.396Z,11.55
2023-05-24T22:17:42.022Z,11.41
2023-05-24T22:20:11.668Z,11.39
2023-05-24T22:22:48.786Z,11.39
2023-05-24T22:25:19.474Z,11.26
2023-05-24T22:27:48.488Z,11.02
2023-05-24T22:30:18.617Z,10.73
2023-05-24T22:32:46.643Z,10.82
2023-05-24T22:35:14.632Z,10.94
2023-05-24T22:37:42.982Z,11.07
2023-05-24T22:40:12.296Z,11.22
2023-05-24T22:42:40.212Z,11.11
2023-05-24T22:45:09.271Z,11.21
2023-05-24T22:47:39.947Z,11.24
2023-05-24T22:50:09.152Z,11.22
2023-05-24T22:52:42.425Z,11.25
2023-05-24T22:55:10.999Z,11.25
2023-05-24T22:57:39.248Z,10.96
2023-05-24T23:00:08.933Z,10.82
2023-05-24T23:02:38.366Z,10.94
2023-05-24T23:05:07.384Z,10.77
2023-05-24T23:07:37.477Z,10.83
2023-05-24T23:10:06.008Z,10.83
2023-05-24T23:12:34.403Z,10.86
2023-05-24T23:15:02.417Z,10.72
2023-05-24T23:17:30.754Z,10.60
2023-05-24T23:20:00.112Z,10.45
2023-05-24T23:22:28.120Z,10.52
2023-05-24T23:24:56.049Z,10.60
2023-05-24T23:27:23.985Z,10.60
2023-05-24T23:29:51.948Z,10.64
2023-05-24T23:32:19.886Z,10.64
2023-05-24T23:34:47.829Z,10.64
2023-05-24T23:37:17.239Z,10.73
2023-05-24T23:39:45.185Z,10.79
2023-05-24T23:42:13.110Z,10.71
2023-05-24T23:44:41.100Z,10.67
2023-05-24T23:47:09.400Z,10.70
2023-05-24T23:49:37.481Z,10.69
2023-05-24T23:52:06.044Z,10.59
2023-05-24T23:54:35.342Z,10.65
2023-05-24T23:57:04.050Z,10.61
2023-05-24T23:59:31.963Z,10.62
